RKPC/CJU METAR and TAF weather

Enter ICAO airport designator
Station Type Date Time Source
RKPC METAR 2019/12/08 11:00 UTC NOAA

RKPC 081100Z 20004KT 9999 BKN030 07/01 Q1028 NOSIG


Station Type Date Time Source
RKPC Decoded METAR 2019/12/08 11:00 UTC NOAA

Cheju International Airport, Korea, South (RKPC) 33-30N 126-30E 28M
Dec 08, 2019 - 06:00 AM EST / 2019.12.08 1100 UTC
Wind: from the SSW (200 degrees) at 5 MPH (4 KT):0
Visibility: greater than 7 mile(s):0
Sky conditions: mostly cloudy
Temperature: 44 F (7 C)
Dew Point: 33 F (1 C)
Relative Humidity: 65%
Pressure (altimeter): 30.36 in. Hg (1028 hPa)
ob: RKPC 081100Z 20004KT 9999 BKN030 07/01 Q1028 NOSIG
cycle: 11

Station Type Date Time Source
RKPC TAF 2019/12/08 12:33 UTC NOAA

TAF TAF RKPC 081100Z 0812/0918 33007KT 9999 BKN030 TN06/0821Z TX13/0906Z
BECMG 0814/0815 17006KT SCT030
BECMG 0900/0901 23009KT

Example: see airport list